createdAt,value
2023-03-02T00:00:21.028Z,96.52
2023-03-02T00:02:49.529Z,98.16
2023-03-02T00:05:17.478Z,97.76
2023-03-02T00:07:45.320Z,97.88
2023-03-02T00:10:14.090Z,97.40
2023-03-02T00:12:43.051Z,97.02
2023-03-02T00:15:11.081Z,96.56
2023-03-02T00:38:16.083Z,82.88
2023-03-02T00:40:47.249Z,82.88
2023-03-02T00:43:16.683Z,84.60
2023-03-02T00:45:45.006Z,85.19
2023-03-02T00:48:12.872Z,85.68
2023-03-02T00:50:41.640Z,86.10
2023-03-02T00:53:10.519Z,86.08
2023-03-02T00:55:38.431Z,86.90
2023-03-02T00:58:06.947Z,86.39
2023-03-02T01:25:39.204Z,87.58
2023-03-02T01:28:08.279Z,86.96
2023-03-02T01:30:36.847Z,86.86
2023-03-02T01:33:04.717Z,85.33
2023-03-02T01:35:32.901Z,85.59
2023-03-02T01:38:00.802Z,85.22
2023-03-02T01:40:29.611Z,85.44
2023-03-02T01:43:02.537Z,83.95
2023-03-02T02:09:20.482Z,82.13
2023-03-02T02:11:49.326Z,82.13
2023-03-02T02:14:17.681Z,83.46
2023-03-02T02:16:45.684Z,84.07
2023-03-02T02:19:45.016Z,81.49
2023-03-02T02:22:22.563Z,81.13
2023-03-02T02:24:58.664Z,81.88
2023-03-02T02:48:19.371Z,74.47
2023-03-02T02:51:01.438Z,74.47
2023-03-02T02:53:41.352Z,77.01
2023-03-02T02:56:10.762Z,76.95
2023-03-02T02:58:52.652Z,76.41
2023-03-02T03:01:26.128Z,75.21
2023-03-02T03:03:57.555Z,75.35
2023-03-02T03:06:30.698Z,76.10
2023-03-02T03:09:01.245Z,76.32
2023-03-02T03:11:34.155Z,76.51
2023-03-02T03:32:07.543Z,71.39
2023-03-02T03:34:41.087Z,71.39
2023-03-02T03:37:11.585Z,71.89
2023-03-02T03:39:40.570Z,72.63
2023-03-02T03:42:08.834Z,72.64
2023-03-02T03:44:37.681Z,72.54
2023-03-02T03:47:06.252Z,71.35
2023-03-02T03:49:34.997Z,72.02
2023-03-02T04:15:08.527Z,70.42
2023-03-02T04:17:37.634Z,70.42
2023-03-02T04:20:08.979Z,72.90
2023-03-02T04:22:48.644Z,73.67
2023-03-02T04:25:22.875Z,72.13
2023-03-02T04:27:52.753Z,71.80
2023-03-02T04:30:24.670Z,70.65
2023-03-02T04:32:53.632Z,70.57
2023-03-02T04:35:35.502Z,71.36
2023-03-02T04:58:56.596Z,67.19
2023-03-02T05:01:25.418Z,67.19
2023-03-02T05:03:53.529Z,68.73
2023-03-02T05:06:25.339Z,68.86
2023-03-02T05:08:54.037Z,69.07
2023-03-02T05:11:24.544Z,67.25
2023-03-02T05:13:58.264Z,67.89
2023-03-02T05:16:31.271Z,68.26
2023-03-02T05:19:00.619Z,68.76
2023-03-02T05:41:52.300Z,63.96
2023-03-02T05:44:20.901Z,63.96
2023-03-02T05:46:49.753Z,65.84
2023-03-02T05:49:17.891Z,66.17
2023-03-02T05:51:46.202Z,65.76
2023-03-02T05:54:14.516Z,65.68
2023-03-02T05:56:42.592Z,64.38
2023-03-02T05:59:10.744Z,63.65
2023-03-02T06:01:39.053Z,65.01
2023-03-02T06:06:51.580Z,63.65
2023-03-02T06:09:20.231Z,63.23
2023-03-02T06:23:04.725Z,62.19
2023-03-02T06:28:24.874Z,60.33
2023-03-02T06:30:53.813Z,60.61
2023-03-02T06:33:22.189Z,60.35
2023-03-02T06:35:50.618Z,60.81
2023-03-02T06:38:18.998Z,60.60
2023-03-02T06:40:47.146Z,61.49
2023-03-02T06:43:15.374Z,62.41
2023-03-02T06:45:45.881Z,61.69
2023-03-02T06:48:13.908Z,60.78
2023-03-02T06:50:42.730Z,60.71
2023-03-02T06:53:12.375Z,59.42
2023-03-02T06:55:40.688Z,60.31
2023-03-02T06:58:13.248Z,58.67
2023-03-02T07:00:42.429Z,58.51
2023-03-02T07:03:10.459Z,57.25
2023-03-02T07:05:38.631Z,57.69
2023-03-02T07:08:18.305Z,57.28
2023-03-02T07:10:46.261Z,54.30
2023-03-02T07:26:23.301Z,54.10
2023-03-02T07:36:16.802Z,55.06
2023-03-02T07:38:45.731Z,55.06
2023-03-02T07:41:15.609Z,56.36
2023-03-02T07:43:43.801Z,57.48
2023-03-02T07:46:12.624Z,57.74
2023-03-02T07:48:40.875Z,56.87
2023-03-02T07:51:08.895Z,57.29
2023-03-02T07:53:37.281Z,57.26
2023-03-02T07:56:11.233Z,57.99
2023-03-02T07:58:39.636Z,57.16
2023-03-02T08:01:07.851Z,56.45
2023-03-02T08:03:37.115Z,57.61
2023-03-02T08:06:13.012Z,55.22
2023-03-02T08:08:46.404Z,56.65
2023-03-02T08:11:20.635Z,56.29
2023-03-02T08:13:49.127Z,55.31
2023-03-02T08:20:04.001Z,55.18
2023-03-02T08:22:36.320Z,56.73
2023-03-02T08:29:25.097Z,55.88
2023-03-02T08:32:47.116Z,55.44
2023-03-02T08:51:08.930Z,56.09
2023-03-02T08:53:42.238Z,55.76
2023-03-02T08:56:28.917Z,53.06
2023-03-02T08:59:03.247Z,48.04
2023-03-02T09:01:34.698Z,47.43
2023-03-02T09:04:05.266Z,46.95
2023-03-02T09:06:36.233Z,44.69
2023-03-02T09:09:05.426Z,43.72
2023-03-02T09:11:34.696Z,45.36
2023-03-02T09:14:03.476Z,48.06
2023-03-02T09:16:32.239Z,46.41
2023-03-02T09:19:00.645Z,44.54
2023-03-02T09:21:28.936Z,43.46
2023-03-02T09:23:59.549Z,45.64
2023-03-02T09:29:10.772Z,43.87
2023-03-02T09:34:05.871Z,45.60
2023-03-02T09:39:16.694Z,46.73
2023-03-02T09:42:03.437Z,48.84
2023-03-02T09:44:41.621Z,48.12
2023-03-02T09:47:35.854Z,49.39
2023-03-02T09:50:25.655Z,50.66
2023-03-02T09:53:08.840Z,54.83
2023-03-02T09:55:37.969Z,55.99
2023-03-02T09:58:17.558Z,58.79
2023-03-02T10:00:47.366Z,58.73
2023-03-02T10:03:35.039Z,59.32
2023-03-02T10:06:03.212Z,60.50
2023-03-02T10:08:36.758Z,59.91
2023-03-02T10:11:18.974Z,60.57
2023-03-02T10:13:53.831Z,61.90
2023-03-02T10:17:16.446Z,62.16
2023-03-02T10:19:53.845Z,62.33
2023-03-02T10:28:26.606Z,60.58
2023-03-02T10:31:10.481Z,62.94
2023-03-02T10:33:40.703Z,62.92
2023-03-02T10:36:32.097Z,63.54
2023-03-02T10:39:01.127Z,63.89
2023-03-02T10:44:34.145Z,65.49
2023-03-02T10:47:02.819Z,66.43
2023-03-02T10:54:50.691Z,64.59
2023-03-02T10:57:31.182Z,64.34
2023-03-02T11:00:23.537Z,64.41
2023-03-02T11:02:57.548Z,62.72
2023-03-02T11:05:41.782Z,64.53
2023-03-02T11:08:33.186Z,62.90
2023-03-02T11:11:03.702Z,63.01
2023-03-02T11:13:34.112Z,63.79
2023-03-02T11:16:18.778Z,62.86
2023-03-02T11:18:57.502Z,64.69
2023-03-02T11:21:29.681Z,63.66
2023-03-02T11:24:05.392Z,65.30
2023-03-02T11:26:51.979Z,65.42
2023-03-02T11:29:45.885Z,65.35
2023-03-02T11:32:20.318Z,66.23
2023-03-02T11:34:58.468Z,65.25
2023-03-02T11:45:13.891Z,65.34
2023-03-02T12:06:07.264Z,65.37
2023-03-02T12:08:44.962Z,66.29
2023-03-02T12:11:18.876Z,67.68
2023-03-02T12:13:59.825Z,68.10
2023-03-02T12:16:41.119Z,66.82
2023-03-02T12:19:38.946Z,65.62
2023-03-02T12:22:10.798Z,64.52
2023-03-02T12:24:40.767Z,66.14
2023-03-02T12:27:26.223Z,64.39
2023-03-02T12:30:17.226Z,64.80
2023-03-02T12:32:58.400Z,64.92
2023-03-02T12:35:27.524Z,65.94
2023-03-02T12:38:31.212Z,65.38
2023-03-02T13:13:43.295Z,63.34
2023-03-02T13:16:26.912Z,63.34
2023-03-02T13:18:58.232Z,67.01
2023-03-02T13:21:37.954Z,66.25
2023-03-02T13:24:33.926Z,66.69
2023-03-02T13:27:18.582Z,68.09
2023-03-02T13:29:55.743Z,69.74
2023-03-02T13:32:36.319Z,68.96
2023-03-02T13:35:26.580Z,70.73
2023-03-02T13:38:03.074Z,70.58
2023-03-02T13:40:38.011Z,71.19
2023-03-02T13:43:33.704Z,70.43
2023-03-02T13:46:27.614Z,70.52
2023-03-02T13:49:10.621Z,70.77
2023-03-02T13:51:46.323Z,70.47
2023-03-02T13:54:26.013Z,71.64
2023-03-02T13:56:54.578Z,71.91
2023-03-02T13:59:26.580Z,71.55
2023-03-02T14:01:54.957Z,71.92
2023-03-02T14:04:24.060Z,71.77
2023-03-02T14:40:25.824Z,72.65
2023-03-02T14:42:54.781Z,72.65
2023-03-02T14:45:23.198Z,74.82
2023-03-02T14:47:51.188Z,74.58
2023-03-02T14:50:20.169Z,73.92
2023-03-02T14:52:55.249Z,74.91
2023-03-02T14:55:29.491Z,75.61
2023-03-02T14:58:04.221Z,76.19
2023-03-02T15:00:32.826Z,75.76
2023-03-02T15:03:01.059Z,74.89
2023-03-02T15:15:18.078Z,75.84
2023-03-02T15:27:42.792Z,78.64
2023-03-02T15:30:13.862Z,78.64
2023-03-02T15:32:43.954Z,80.12
2023-03-02T15:35:15.257Z,79.61
2023-03-02T15:37:43.264Z,80.26
2023-03-02T15:40:13.946Z,80.11
2023-03-02T15:42:44.370Z,80.69
2023-03-02T15:45:12.195Z,82.53
2023-03-02T15:47:40.172Z,83.49
2023-03-02T15:50:10.747Z,82.82
2023-03-02T15:52:43.450Z,83.74
2023-03-02T16:18:36.691Z,83.93
2023-03-02T16:21:05.692Z,83.93
2023-03-02T16:23:33.742Z,86.24
2023-03-02T16:26:10.259Z,86.58
2023-03-02T16:28:38.738Z,86.81
2023-03-02T16:31:13.488Z,86.38
2023-03-02T16:33:42.525Z,86.96
2023-03-02T16:36:11.540Z,86.54
2023-03-02T16:38:39.777Z,87.00
2023-03-02T16:59:17.661Z,88.81
2023-03-02T17:01:46.501Z,89.09
2023-03-02T17:04:14.902Z,89.83
2023-03-02T17:06:59.987Z,89.75
2023-03-02T17:09:29.314Z,89.49
2023-03-02T17:11:57.674Z,89.67
2023-03-02T17:14:26.165Z,89.67
2023-03-02T17:16:56.564Z,90.19
2023-03-02T17:19:31.279Z,90.21
2023-03-02T17:42:57.674Z,90.67
2023-03-02T17:45:31.240Z,91.58
2023-03-02T17:48:00.168Z,91.97
2023-03-02T17:50:31.942Z,91.99
2023-03-02T17:53:00.319Z,91.81
2023-03-02T17:55:29.170Z,91.24
2023-03-02T17:57:57.372Z,90.66
2023-03-02T18:00:27.251Z,90.41
2023-03-02T18:02:55.949Z,91.34
2023-03-02T18:26:20.014Z,88.11
2023-03-02T18:28:48.821Z,88.11
2023-03-02T18:31:19.053Z,90.78
2023-03-02T18:33:47.850Z,91.45
2023-03-02T18:36:16.808Z,91.90
2023-03-02T18:38:45.637Z,91.67
2023-03-02T18:41:14.460Z,92.68
2023-03-02T18:43:43.490Z,93.25
2023-03-02T19:04:08.868Z,89.18
2023-03-02T19:06:37.871Z,89.18
2023-03-02T19:09:06.449Z,91.52
2023-03-02T19:11:34.743Z,91.60
2023-03-02T19:14:03.415Z,91.93
2023-03-02T19:16:31.698Z,93.41
2023-03-02T19:19:00.121Z,93.10
2023-03-02T19:21:28.387Z,93.40
2023-03-02T19:26:40.425Z,95.42
2023-03-02T19:31:46.150Z,93.68
2023-03-02T19:34:15.312Z,94.30
2023-03-02T19:36:45.038Z,94.66
2023-03-02T19:39:13.385Z,93.68
2023-03-02T19:41:42.070Z,93.39
2023-03-02T19:44:12.330Z,94.38
2023-03-02T19:46:40.574Z,94.25
2023-03-02T19:49:09.930Z,95.09
2023-03-02T20:09:37.333Z,93.27
2023-03-02T20:12:08.245Z,93.27
2023-03-02T20:14:36.329Z,95.67
2023-03-02T20:17:05.238Z,96.25
2023-03-02T20:19:34.347Z,96.65
2023-03-02T20:22:03.863Z,97.87
2023-03-02T20:24:32.071Z,96.64
2023-03-02T20:27:00.411Z,96.80
2023-03-02T20:47:15.472Z,93.00
2023-03-02T20:49:44.800Z,93.00
2023-03-02T20:52:13.086Z,95.13
2023-03-02T20:54:42.626Z,96.83
2023-03-02T20:57:16.134Z,96.97
2023-03-02T20:59:46.080Z,97.73
2023-03-02T21:05:00.448Z,99.48
2023-03-02T21:25:00.814Z,94.48
2023-03-02T21:27:29.418Z,94.48
2023-03-02T21:30:01.874Z,96.50
2023-03-02T21:32:33.380Z,99.26
2023-03-02T21:35:02.598Z,98.17
2023-03-02T21:37:31.146Z,97.32
2023-03-02T21:42:48.723Z,98.96
2023-03-02T22:03:07.556Z,98.29
2023-03-02T22:05:36.247Z,98.29
2023-03-02T22:08:04.179Z,100.00
2023-03-02T22:10:38.803Z,100.00
2023-03-02T22:13:21.217Z,100.00
2023-03-02T22:15:55.046Z,100.00
2023-03-02T22:18:25.914Z,100.00
2023-03-02T22:20:54.364Z,100.00
2023-03-02T22:39:01.152Z,100.00
2023-03-02T22:41:29.865Z,100.00
2023-03-02T22:43:58.014Z,100.00
2023-03-02T22:46:26.192Z,100.00
2023-03-02T22:48:55.133Z,100.00
2023-03-02T22:51:30.555Z,100.00
2023-03-02T22:54:00.543Z,100.00
2023-03-02T22:56:40.857Z,100.00
2023-03-02T23:14:59.900Z,100.00
2023-03-02T23:17:39.575Z,100.00
2023-03-02T23:20:11.137Z,100.00
2023-03-02T23:22:39.480Z,100.00
2023-03-02T23:25:08.825Z,100.00
2023-03-02T23:27:36.773Z,100.00
2023-03-02T23:30:06.533Z,100.00
2023-03-02T23:32:40.843Z,100.00
2023-03-02T23:52:35.223Z,100.00
2023-03-02T23:55:04.704Z,100.00
2023-03-02T23:57:32.584Z,100.00
